Nambouwalu, Fiji
Current Conditions -  °F | °C
As of 12:00 AM on Friday 30 Jan 2015 (Local Time) from NFNA Reporting Station
Few Clouds Few Clouds  
Wind Chill: 75°   Ceiling: Unl
Heat Index: 75°   Visibility: 6mi
Dew Point: 73°   Wind: 0mph
Humidity: 94%   Direction: NA
Pressure: 29.71"   Gusts: NA
Location:  16.99°S, 178.69°E
Report Text: NFNA 291200Z 00000KT 9999 FEW022 24/23 Q1006
Loading
Personal Weather Stations






























Interactive Weather Map New forecast layout! Learn more

10-Day Weather Forecast

Advertisements
Track Severe Weather on mobile